sensor_id;sensor_type;location;lat;lon;timestamp;P1;durP1;ratioP1;P2;durP2;ratioP2
38603;SDS011;24924;50.054;8.790;2022-09-09T05:41:37;4.93;;;2.40;;
38603;SDS011;24924;50.054;8.790;2022-09-09T05:44:03;6.57;;;2.40;;
38603;SDS011;24924;50.054;8.790;2022-09-09T05:46:34;5.15;;;2.10;;
38603;SDS011;24924;50.054;8.790;2022-09-09T05:49:00;6.53;;;2.30;;
38603;SDS011;24924;50.054;8.790;2022-09-09T05:51:30;5.75;;;2.08;;
38603;SDS011;24924;50.054;8.790;2022-09-09T05:53:57;7.90;;;2.20;;
38603;SDS011;24924;50.054;8.790;2022-09-09T05:56:29;4.47;;;2.00;;
38603;SDS011;24924;50.054;8.790;2022-09-09T05:58:57;5.60;;;2.38;;
38603;SDS011;24924;50.054;8.790;2022-09-09T06:01:26;4.57;;;2.33;;
38603;SDS011;24924;50.054;8.790;2022-09-09T06:03:57;6.78;;;2.20;;
38603;SDS011;24924;50.054;8.790;2022-09-09T06:06:24;5.55;;;2.10;;
38603;SDS011;24924;50.054;8.790;2022-09-09T06:08:54;4.47;;;2.00;;
38603;SDS011;24924;50.054;8.790;2022-09-09T06:11:26;7.07;;;2.10;;
38603;SDS011;24924;50.054;8.790;2022-09-09T06:13:57;6.67;;;2.00;;
38603;SDS011;24924;50.054;8.790;2022-09-09T06:16:23;5.47;;;2.00;;
38603;SDS011;24924;50.054;8.790;2022-09-09T06:18:52;5.55;;;2.00;;
38603;SDS011;24924;50.054;8.790;2022-09-09T06:21:20;7.10;;;2.10;;
38603;SDS011;24924;50.054;8.790;2022-09-09T06:23:48;5.10;;;2.03;;
38603;SDS011;24924;50.054;8.790;2022-09-09T06:26:14;5.43;;;2.07;;
38603;SDS011;24924;50.054;8.790;2022-09-09T06:28:49;6.63;;;2.22;;
38603;SDS011;24924;50.054;8.790;2022-09-09T06:31:19;4.60;;;1.83;;
38603;SDS011;24924;50.054;8.790;2022-09-09T06:33:48;5.18;;;2.08;;
38603;SDS011;24924;50.054;8.790;2022-09-09T06:36:25;3.80;;;1.80;;
38603;SDS011;24924;50.054;8.790;2022-09-09T06:38:57;8.85;;;2.22;;
38603;SDS011;24924;50.054;8.790;2022-09-09T06:41:25;5.57;;;2.22;;
38603;SDS011;24924;50.054;8.790;2022-09-09T06:43:52;6.55;;;2.08;;
38603;SDS011;24924;50.054;8.790;2022-09-09T06:46:25;5.50;;;2.25;;
38603;SDS011;24924;50.054;8.790;2022-09-09T06:48:54;5.10;;;2.00;;
38603;SDS011;24924;50.054;8.790;2022-09-09T06:51:23;5.38;;;1.92;;
38603;SDS011;24924;50.054;8.790;2022-09-09T06:53:52;8.27;;;2.00;;
38603;SDS011;24924;50.054;8.790;2022-09-09T06:56:22;7.32;;;1.88;;
38603;SDS011;24924;50.054;8.790;2022-09-09T06:58:51;5.55;;;1.73;;
38603;SDS011;24924;50.054;8.790;2022-09-09T07:01:24;5.83;;;2.00;;
38603;SDS011;24924;50.054;8.790;2022-09-09T07:03:54;5.45;;;1.95;;
38603;SDS011;24924;50.054;8.790;2022-09-09T07:08:52;5.60;;;2.00;;
38603;SDS011;24924;50.054;8.790;2022-09-09T07:11:20;6.43;;;2.10;;
38603;SDS011;24924;50.054;8.790;2022-09-09T07:13:47;6.80;;;2.00;;
38603;SDS011;24924;50.054;8.790;2022-09-09T07:16:14;6.47;;;2.05;;
38603;SDS011;24924;50.054;8.790;2022-09-09T07:18:42;8.23;;;2.42;;
38603;SDS011;24924;50.054;8.790;2022-09-09T07:21:12;7.32;;;2.08;;
38603;SDS011;24924;50.054;8.790;2022-09-09T07:23:40;5.50;;;1.98;;
38603;SDS011;24924;50.054;8.790;2022-09-09T07:26:10;5.83;;;2.00;;
38603;SDS011;24924;50.054;8.790;2022-09-09T07:28:37;7.75;;;2.50;;
38603;SDS011;24924;50.054;8.790;2022-09-09T07:31:04;8.52;;;2.70;;
38603;SDS011;24924;50.054;8.790;2022-09-09T07:33:32;9.30;;;2.63;;
38603;SDS011;24924;50.054;8.790;2022-09-09T07:36:14;7.97;;;2.55;;
38603;SDS011;24924;50.054;8.790;2022-09-09T07:38:49;5.57;;;2.23;;
38603;SDS011;24924;50.054;8.790;2022-09-09T07:41:18;7.03;;;2.40;;
38603;SDS011;24924;50.054;8.790;2022-09-09T07:43:50;8.98;;;2.65;;
38603;SDS011;24924;50.054;8.790;2022-09-09T07:46:19;10.52;;;2.35;;
38603;SDS011;24924;50.054;8.790;2022-09-09T07:48:48;5.38;;;2.42;;
38603;SDS011;24924;50.054;8.790;2022-09-09T07:51:18;4.80;;;2.37;;
38603;SDS011;24924;50.054;8.790;2022-09-09T07:53:50;7.30;;;2.75;;
38603;SDS011;24924;50.054;8.790;2022-09-09T07:56:18;6.07;;;2.40;;
38603;SDS011;24924;50.054;8.790;2022-09-09T07:58:45;5.35;;;2.38;;
38603;SDS011;24924;50.054;8.790;2022-09-09T08:01:13;10.38;;;2.35;;
38603;SDS011;24924;50.054;8.790;2022-09-09T08:03:39;8.00;;;2.60;;
38603;SDS011;24924;50.054;8.790;2022-09-09T08:06:07;6.22;;;2.30;;
38603;SDS011;24924;50.054;8.790;2022-09-09T08:08:34;8.32;;;2.83;;
38603;SDS011;24924;50.054;8.790;2022-09-09T08:11:06;8.57;;;3.00;;
38603;SDS011;24924;50.054;8.790;2022-09-09T08:13:37;5.00;;;2.40;;
38603;SDS011;24924;50.054;8.790;2022-09-09T08:18:34;8.90;;;2.80;;
38603;SDS011;24924;50.054;8.790;2022-09-09T08:21:10;5.68;;;2.40;;
38603;SDS011;24924;50.054;8.790;2022-09-09T08:23:42;5.43;;;2.33;;
38603;SDS011;24924;50.054;8.790;2022-09-09T08:26:12;6.53;;;2.38;;
38603;SDS011;24924;50.054;8.790;2022-09-09T08:28:40;6.80;;;2.80;;
38603;SDS011;24924;50.054;8.790;2022-09-09T08:31:08;6.25;;;2.60;;
38603;SDS011;24924;50.054;8.790;2022-09-09T08:33:39;9.80;;;3.00;;
38603;SDS011;24924;50.054;8.790;2022-09-09T08:36:08;7.47;;;2.70;;
38603;SDS011;24924;50.054;8.790;2022-09-09T08:38:35;6.88;;;2.80;;
38603;SDS011;24924;50.054;8.790;2022-09-09T08:41:06;6.30;;;2.83;;
38603;SDS011;24924;50.054;8.790;2022-09-09T08:43:58;8.27;;;2.65;;
38603;SDS011;24924;50.054;8.790;2022-09-09T08:46:56;6.57;;;2.75;;
38603;SDS011;24924;50.054;8.790;2022-09-09T08:52:25;5.40;;;2.60;;
38603;SDS011;24924;50.054;8.790;2022-09-09T08:55:15;7.50;;;2.40;;
38603;SDS011;24924;50.054;8.790;2022-09-09T09:04:04;6.47;;;2.30;;
38603;SDS011;24924;50.054;8.790;2022-09-09T09:06:44;6.70;;;2.20;;
38603;SDS011;24924;50.054;8.790;2022-09-09T09:09:30;8.20;;;2.40;;
38603;SDS011;24924;50.054;8.790;2022-09-09T09:12:15;6.63;;;2.30;;
38603;SDS011;24924;50.054;8.790;2022-09-09T09:14:45;6.10;;;2.35;;
38603;SDS011;24924;50.054;8.790;2022-09-09T09:17:14;7.63;;;2.22;;
38603;SDS011;24924;50.054;8.790;2022-09-09T09:19:46;9.98;;;2.17;;
38603;SDS011;24924;50.054;8.790;2022-09-09T09:22:19;7.07;;;2.30;;
38603;SDS011;24924;50.054;8.790;2022-09-09T09:24:55;7.60;;;2.20;;
38603;SDS011;24924;50.054;8.790;2022-09-09T09:27:58;4.22;;;1.80;;
38603;SDS011;24924;50.054;8.790;2022-09-09T09:30:39;6.80;;;2.10;;
38603;SDS011;24924;50.054;8.790;2022-09-09T09:33:23;8.77;;;2.30;;
38603;SDS011;24924;50.054;8.790;2022-09-09T09:35:56;6.23;;;2.10;;
38603;SDS011;24924;50.054;8.790;2022-09-09T09:38:23;5.47;;;1.92;;
38603;SDS011;24924;50.054;8.790;2022-09-09T09:40:55;12.73;;;2.40;;
38603;SDS011;24924;50.054;8.790;2022-09-09T09:43:27;9.68;;;2.40;;
38603;SDS011;24924;50.054;8.790;2022-09-09T09:46:00;8.07;;;2.78;;
38603;SDS011;24924;50.054;8.790;2022-09-09T09:48:29;9.63;;;2.63;;
38603;SDS011;24924;50.054;8.790;2022-09-09T09:50:56;6.25;;;2.20;;
38603;SDS011;24924;50.054;8.790;2022-09-09T09:53:43;6.05;;;2.40;;
38603;SDS011;24924;50.054;8.790;2022-09-09T09:56:11;7.72;;;2.38;;
38603;SDS011;24924;50.054;8.790;2022-09-09T10:01:22;5.57;;;1.90;;
38603;SDS011;24924;50.054;8.790;2022-09-09T10:03:53;5.10;;;1.73;;
38603;SDS011;24924;50.054;8.790;2022-09-09T10:06:29;4.75;;;1.70;;
38603;SDS011;24924;50.054;8.790;2022-09-09T10:09:20;6.03;;;2.00;;
38603;SDS011;24924;50.054;8.790;2022-09-09T10:12:11;6.93;;;2.10;;
38603;SDS011;24924;50.054;8.790;2022-09-09T10:15:02;6.80;;;2.10;;
38603;SDS011;24924;50.054;8.790;2022-09-09T10:17:34;5.80;;;2.20;;
38603;SDS011;24924;50.054;8.790;2022-09-09T10:23:25;6.47;;;2.28;;
38603;SDS011;24924;50.054;8.790;2022-09-09T10:29:05;7.90;;;2.90;;
38603;SDS011;24924;50.054;8.790;2022-09-09T10:37:00;8.23;;;2.40;;
38603;SDS011;24924;50.054;8.790;2022-09-09T10:39:40;8.60;;;2.53;;
38603;SDS011;24924;50.054;8.790;2022-09-09T10:42:07;7.40;;;2.30;;
38603;SDS011;24924;50.054;8.790;2022-09-09T10:47:24;5.90;;;2.20;;
38603;SDS011;24924;50.054;8.790;2022-09-09T10:50:06;8.00;;;2.30;;
38603;SDS011;24924;50.054;8.790;2022-09-09T10:52:58;7.40;;;2.40;;
38603;SDS011;24924;50.054;8.790;2022-09-09T10:55:53;5.57;;;2.25;;
38603;SDS011;24924;50.054;8.790;2022-09-09T10:58:35;5.18;;;2.10;;
38603;SDS011;24924;50.054;8.790;2022-09-09T11:04:01;6.07;;;2.10;;
38603;SDS011;24924;50.054;8.790;2022-09-09T11:06:37;6.83;;;2.00;;
38603;SDS011;24924;50.054;8.790;2022-09-09T11:09:07;6.45;;;2.10;;
38603;SDS011;24924;50.054;8.790;2022-09-09T11:11:44;4.50;;;1.73;;
38603;SDS011;24924;50.054;8.790;2022-09-09T11:14:20;6.75;;;1.80;;
38603;SDS011;24924;50.054;8.790;2022-09-09T11:17:01;5.40;;;1.70;;
38603;SDS011;24924;50.054;8.790;2022-09-09T11:19:35;4.90;;;1.80;;
38603;SDS011;24924;50.054;8.790;2022-09-09T11:22:27;5.25;;;1.70;;
38603;SDS011;24924;50.054;8.790;2022-09-09T11:25:00;5.97;;;1.70;;
38603;SDS011;24924;50.054;8.790;2022-09-09T11:27:36;5.53;;;1.70;;
38603;SDS011;24924;50.054;8.790;2022-09-09T11:30:14;4.00;;;1.65;;
38603;SDS011;24924;50.054;8.790;2022-09-09T11:32:48;6.77;;;1.60;;
38603;SDS011;24924;50.054;8.790;2022-09-09T11:35:48;6.38;;;1.75;;
38603;SDS011;24924;50.054;8.790;2022-09-09T11:38:27;4.53;;;1.60;;
38603;SDS011;24924;50.054;8.790;2022-09-09T11:41:08;6.05;;;1.92;;
38603;SDS011;24924;50.054;8.790;2022-09-09T11:46:12;6.23;;;2.10;;
38603;SDS011;24924;50.054;8.790;2022-09-09T11:48:41;6.57;;;1.67;;
38603;SDS011;24924;50.054;8.790;2022-09-09T11:53:53;6.30;;;1.65;;
38603;SDS011;24924;50.054;8.790;2022-09-09T11:56:29;7.10;;;1.83;;
38603;SDS011;24924;50.054;8.790;2022-09-09T11:58:58;6.70;;;1.90;;
38603;SDS011;24924;50.054;8.790;2022-09-09T12:01:30;4.82;;;1.73;;
38603;SDS011;24924;50.054;8.790;2022-09-09T12:06:50;6.35;;;2.30;;
38603;SDS011;24924;50.054;8.790;2022-09-09T12:12:24;5.60;;;1.87;;
38603;SDS011;24924;50.054;8.790;2022-09-09T12:15:15;6.93;;;2.00;;
38603;SDS011;24924;50.054;8.790;2022-09-09T12:17:55;6.15;;;1.83;;
38603;SDS011;24924;50.054;8.790;2022-09-09T12:28:11;6.88;;;2.25;;
38603;SDS011;24924;50.054;8.790;2022-09-09T12:30:58;6.35;;;2.30;;
38603;SDS011;24924;50.054;8.790;2022-09-09T12:33:39;7.15;;;2.00;;
38603;SDS011;24924;50.054;8.790;2022-09-09T12:36:14;9.85;;;2.00;;
38603;SDS011;24924;50.054;8.790;2022-09-09T12:38:43;5.63;;;2.37;;
38603;SDS011;24924;50.054;8.790;2022-09-09T12:41:25;9.95;;;2.30;;
38603;SDS011;24924;50.054;8.790;2022-09-09T12:44:02;6.43;;;2.50;;
38603;SDS011;24924;50.054;8.790;2022-09-09T12:46:41;6.63;;;2.47;;
38603;SDS011;24924;50.054;8.790;2022-09-09T12:55:00;6.60;;;2.08;;
38603;SDS011;24924;50.054;8.790;2022-09-09T12:57:31;7.15;;;2.20;;
38603;SDS011;24924;50.054;8.790;2022-09-09T13:00:06;6.75;;;2.60;;
38603;SDS011;24924;50.054;8.790;2022-09-09T13:02:44;6.78;;;2.55;;
38603;SDS011;24924;50.054;8.790;2022-09-09T13:05:13;11.87;;;2.60;;
38603;SDS011;24924;50.054;8.790;2022-09-09T13:07:41;6.57;;;2.40;;
38603;SDS011;24924;50.054;8.790;2022-09-09T13:10:10;11.82;;;2.97;;
38603;SDS011;24924;50.054;8.790;2022-09-09T13:12:37;6.63;;;2.63;;
38603;SDS011;24924;50.054;8.790;2022-09-09T13:15:04;7.43;;;2.83;;
38603;SDS011;24924;50.054;8.790;2022-09-09T13:17:34;7.03;;;2.80;;
38603;SDS011;24924;50.054;8.790;2022-09-09T13:20:01;12.52;;;2.90;;
38603;SDS011;24924;50.054;8.790;2022-09-09T13:22:31;7.35;;;2.63;;
38603;SDS011;24924;50.054;8.790;2022-09-09T13:25:04;8.38;;;2.70;;
38603;SDS011;24924;50.054;8.790;2022-09-09T13:27:51;11.15;;;2.85;;
38603;SDS011;24924;50.054;8.790;2022-09-09T13:30:25;8.60;;;2.33;;
38603;SDS011;24924;50.054;8.790;2022-09-09T13:35:47;5.00;;;2.00;;
38603;SDS011;24924;50.054;8.790;2022-09-09T13:38:52;5.05;;;2.00;;
38603;SDS011;24924;50.054;8.790;2022-09-09T13:41:24;4.15;;;1.70;;
38603;SDS011;24924;50.054;8.790;2022-09-09T13:44:25;6.57;;;2.03;;
38603;SDS011;24924;50.054;8.790;2022-09-09T13:47:00;4.88;;;1.90;;
38603;SDS011;24924;50.054;8.790;2022-09-09T13:49:31;4.00;;;1.60;;
38603;SDS011;24924;50.054;8.790;2022-09-09T13:52:06;4.32;;;1.60;;
38603;SDS011;24924;50.054;8.790;2022-09-09T13:54:36;6.45;;;1.90;;
38603;SDS011;24924;50.054;8.790;2022-09-09T13:57:02;4.03;;;1.50;;
38603;SDS011;24924;50.054;8.790;2022-09-09T13:59:29;3.95;;;1.50;;
38603;SDS011;24924;50.054;8.790;2022-09-09T14:01:57;3.58;;;1.20;;
38603;SDS011;24924;50.054;8.790;2022-09-09T14:04:23;4.43;;;1.35;;
38603;SDS011;24924;50.054;8.790;2022-09-09T14:06:49;3.75;;;1.20;;
38603;SDS011;24924;50.054;8.790;2022-09-09T14:09:15;4.47;;;1.20;;
38603;SDS011;24924;50.054;8.790;2022-09-09T14:11:43;4.00;;;1.30;;
38603;SDS011;24924;50.054;8.790;2022-09-09T14:14:11;3.58;;;1.10;;
38603;SDS011;24924;50.054;8.790;2022-09-09T14:16:36;3.57;;;1.10;;
38603;SDS011;24924;50.054;8.790;2022-09-09T14:19:03;3.42;;;1.10;;
38603;SDS011;24924;50.054;8.790;2022-09-09T14:21:29;5.05;;;1.35;;
38603;SDS011;24924;50.054;8.790;2022-09-09T14:23:56;4.35;;;1.20;;
38603;SDS011;24924;50.054;8.790;2022-09-09T14:26:23;3.53;;;1.25;;
38603;SDS011;24924;50.054;8.790;2022-09-09T14:28:49;4.67;;;1.50;;
38603;SDS011;24924;50.054;8.790;2022-09-09T14:31:16;3.88;;;1.33;;
38603;SDS011;24924;50.054;8.790;2022-09-09T14:33:43;5.18;;;1.42;;
38603;SDS011;24924;50.054;8.790;2022-09-09T14:36:09;6.53;;;2.42;;
38603;SDS011;24924;50.054;8.790;2022-09-09T14:38:37;3.20;;;1.30;;
38603;SDS011;24924;50.054;8.790;2022-09-09T14:41:22;4.37;;;1.60;;
38603;SDS011;24924;50.054;8.790;2022-09-09T14:43:48;4.10;;;1.40;;
38603;SDS011;24924;50.054;8.790;2022-09-09T14:46:16;5.05;;;1.58;;
38603;SDS011;24924;50.054;8.790;2022-09-09T14:48:43;3.45;;;1.50;;
38603;SDS011;24924;50.054;8.790;2022-09-09T14:51:15;3.40;;;1.48;;
38603;SDS011;24924;50.054;8.790;2022-09-09T14:53:44;3.47;;;1.40;;
38603;SDS011;24924;50.054;8.790;2022-09-09T14:56:14;3.33;;;1.30;;
38603;SDS011;24924;50.054;8.790;2022-09-09T14:58:41;3.28;;;1.38;;
38603;SDS011;24924;50.054;8.790;2022-09-09T15:01:09;3.28;;;1.30;;
38603;SDS011;24924;50.054;8.790;2022-09-09T15:03:37;3.30;;;1.57;;
38603;SDS011;24924;50.054;8.790;2022-09-09T15:06:05;3.38;;;1.40;;
38603;SDS011;24924;50.054;8.790;2022-09-09T15:08:34;4.20;;;1.50;;
38603;SDS011;24924;50.054;8.790;2022-09-09T15:11:01;4.15;;;1.60;;
38603;SDS011;24924;50.054;8.790;2022-09-09T15:13:29;5.13;;;1.83;;
38603;SDS011;24924;50.054;8.790;2022-09-09T15:15:55;5.10;;;1.90;;
38603;SDS011;24924;50.054;8.790;2022-09-09T15:18:21;6.05;;;1.67;;
38603;SDS011;24924;50.054;8.790;2022-09-09T15:20:47;4.88;;;1.80;;
38603;SDS011;24924;50.054;8.790;2022-09-09T15:23:13;5.30;;;1.70;;
38603;SDS011;24924;50.054;8.790;2022-09-09T15:25:55;4.70;;;1.70;;
38603;SDS011;24924;50.054;8.790;2022-09-09T15:28:21;4.88;;;1.70;;
38603;SDS011;24924;50.054;8.790;2022-09-09T15:30:50;4.10;;;1.58;;
38603;SDS011;24924;50.054;8.790;2022-09-09T15:33:18;3.95;;;1.50;;
38603;SDS011;24924;50.054;8.790;2022-09-09T15:35:44;6.00;;;1.57;;
38603;SDS011;24924;50.054;8.790;2022-09-09T15:38:10;5.25;;;1.70;;
38603;SDS011;24924;50.054;8.790;2022-09-09T15:40:38;4.82;;;1.40;;
38603;SDS011;24924;50.054;8.790;2022-09-09T15:43:05;3.70;;;1.45;;
38603;SDS011;24924;50.054;8.790;2022-09-09T15:45:32;5.38;;;1.40;;
38603;SDS011;24924;50.054;8.790;2022-09-09T15:47:59;3.73;;;1.30;;
38603;SDS011;24924;50.054;8.790;2022-09-09T15:50:28;4.57;;;1.35;;
38603;SDS011;24924;50.054;8.790;2022-09-09T15:52:56;5.47;;;1.52;;
38603;SDS011;24924;50.054;8.790;2022-09-09T15:55:22;4.07;;;1.30;;
38603;SDS011;24924;50.054;8.790;2022-09-09T15:57:49;3.60;;;1.20;;
38603;SDS011;24924;50.054;8.790;2022-09-09T16:00:15;5.60;;;1.50;;
38603;SDS011;24924;50.054;8.790;2022-09-09T16:02:40;3.63;;;1.30;;
38603;SDS011;24924;50.054;8.790;2022-09-09T16:05:07;3.43;;;1.33;;
38603;SDS011;24924;50.054;8.790;2022-09-09T16:07:33;4.63;;;1.40;;
38603;SDS011;24924;50.054;8.790;2022-09-09T16:10:00;3.53;;;1.38;;
38603;SDS011;24924;50.054;8.790;2022-09-09T16:12:26;5.10;;;1.50;;
38603;SDS011;24924;50.054;8.790;2022-09-09T16:14:52;4.05;;;1.33;;
38603;SDS011;24924;50.054;8.790;2022-09-09T16:17:17;5.63;;;1.70;;
38603;SDS011;24924;50.054;8.790;2022-09-09T16:19:45;4.73;;;1.50;;
38603;SDS011;24924;50.054;8.790;2022-09-09T16:22:11;6.28;;;1.50;;
38603;SDS011;24924;50.054;8.790;2022-09-09T16:24:37;3.92;;;1.70;;
38603;SDS011;24924;50.054;8.790;2022-09-09T16:27:03;5.23;;;1.77;;
38603;SDS011;24924;50.054;8.790;2022-09-09T16:29:29;4.45;;;1.70;;
38603;SDS011;24924;50.054;8.790;2022-09-09T16:31:55;3.83;;;1.50;;
38603;SDS011;24924;50.054;8.790;2022-09-09T16:34:21;4.03;;;1.60;;
38603;SDS011;24924;50.054;8.790;2022-09-09T16:36:47;5.90;;;1.90;;
38603;SDS011;24924;50.054;8.790;2022-09-09T16:39:14;5.25;;;1.70;;
38603;SDS011;24924;50.054;8.790;2022-09-09T16:41:42;3.83;;;1.60;;
38603;SDS011;24924;50.054;8.790;2022-09-09T16:44:10;4.30;;;1.80;;
38603;SDS011;24924;50.054;8.790;2022-09-09T16:46:41;5.47;;;1.70;;
38603;SDS011;24924;50.054;8.790;2022-09-09T16:49:14;8.07;;;1.93;;
38603;SDS011;24924;50.054;8.790;2022-09-09T16:51:48;5.55;;;2.10;;
38603;SDS011;24924;50.054;8.790;2022-09-09T16:54:18;4.95;;;1.80;;
38603;SDS011;24924;50.054;8.790;2022-09-09T16:56:44;5.32;;;1.77;;
38603;SDS011;24924;50.054;8.790;2022-09-09T16:59:13;5.03;;;1.73;;
38603;SDS011;24924;50.054;8.790;2022-09-09T17:01:41;6.37;;;1.83;;
38603;SDS011;24924;50.054;8.790;2022-09-09T17:04:15;4.38;;;2.00;;
38603;SDS011;24924;50.054;8.790;2022-09-09T17:06:46;6.03;;;1.85;;
